Date,TemperatureHighF,TemperatureAvgF,TemperatureLowF,DewpointHighF,DewpointAvgF,DewpointLowF,HumidityHigh,HumidityAvg,HumidityLow,PressureMaxIn,PressureMinIn,WindSpeedMaxMPH,WindSpeedAvgMPH,GustSpeedMaxMPH,PrecipitationSumIn
2013-8-1,88,68,52,63,55,48,89,66,36,30.16,29.98,9,2,9,0.00
2013-8-2,86,67,54,62,54,49,89,66,34,30.16,29.97,7,1,7,0.00
2013-8-3,88,66,50,62,52,47,90,65,29,30.31,30.16,10,1,10,0.00
2013-8-4,81,63,48,59,53,44,89,72,45,30.33,30.09,7,1,7,0.00
2013-8-5,89,69,59,67,60,52,91,75,46,30.14,29.91,10,2,11,0.31
2013-8-6,87,69,54,66,59,51,91,72,47,29.97,29.81,14,3,14,0.00
2013-8-7,85,68,55,58,55,50,90,67,36,30.14,29.91,8,2,8,0.00
2013-8-8,77,62,52,60,54,48,88,78,54,30.17,30.09,8,1,11,0.12
2013-8-9,82,66,53,62,54,50,92,68,37,30.24,30.11,11,2,11,0.00
2013-8-10,84,66,52,59,55,49,90,68,41,30.30,30.18,6,1,8,0.00
2013-8-11,89,71,63,65,60,55,87,70,43,30.19,30.10,6,1,6,0.00
2013-8-12,85,70,55,63,57,52,90,67,38,30.17,30.12,17,1,17,0.00
2013-8-13,85,66,52,59,51,47,89,64,31,30.30,30.17,9,1,9,0.00
2013-8-14,80,64,49,62,50,46,89,64,34,30.31,30.21,10,2,11,0.00
2013-8-15,83,66,53,60,53,47,86,66,37,30.24,30.18,9,2,10,0.00
2013-8-16,82,66,51,59,53,48,90,68,40,30.31,30.23,13,2,13,0.00
2013-8-17,84,68,53,60,54,49,88,64,42,30.30,30.21,16,4,16,0.00
2013-8-18,83,70,56,60,55,50,83,61,41,30.24,30.11,21,4,21,0.00
2013-8-19,88,75,63,68,62,55,77,64,49,30.15,29.99,14,5,14,0.00
2013-8-20,90,78,69,70,66,62,81,67,52,30.02,29.96,14,4,14,0.00
2013-8-21,91,77,69,73,68,63,87,75,54,30.10,29.94,11,3,11,0.24
2013-8-22,94,76,60,66,58,53,86,57,33,30.22,30.10,11,2,11,0.00
2013-8-23,88,72,55,68,61,51,88,70,50,30.23,30.13,11,3,11,0.00
2013-8-24,89,79,71,69,66,63,79,66,50,30.15,30.02,24,8,24,0.00
2013-8-25,96,84,74,73,70,66,78,64,47,30.10,30.04,18,7,18,0.00
2013-8-26,96,84,73,74,71,67,86,67,48,30.09,29.94,14,4,14,0.00
2013-8-27,101,84,72,76,71,67,84,67,44,30.03,29.91,9,2,9,0.00
2013-8-28,97,80,66,73,69,63,90,72,46,30.11,30.02,8,1,8,0.00
2013-8-29,94,82,73,72,69,65,89,67,44,30.10,29.96,14,4,14,0.00
2013-8-30,91,77,64,69,65,60,87,69,43,30.04,29.95,11,2,11,0.00
2013-8-31,91,73,58,67,62,56,91,72,43,30.01,29.85,10,2,10,0.07